Time;durP1;ratioP1;P1;durP2;ratioP2;P2;SDS_P1;SDS_P2;PMS_P1;PMS_P2;Temp;Humidity;BMP_temperature;BMP_pressure;BME280_temperature;BME280_humidity;BME280_pressure;Samples;Min_cycle;Max_cycle;Signal;HPM_P1;HPM_P2
2021/07/22 00:01:29;;;;;;;6.57;4.57;;;20.20;66.10;;;;;;4976049;28;20054;-78
2021/07/22 00:03:54;;;;;;;5.72;4.28;;;20.20;66.30;;;;;;4980722;28;20571;-78
2021/07/22 00:06:20;;;;;;;6.40;4.55;;;20.10;66.40;;;;;;4993220;28;20026;-78
2021/07/22 00:08:45;;;;;;;5.38;4.18;;;20.10;66.60;;;;;;4988664;28;20023;-77
2021/07/22 00:11:11;;;;;;;5.10;4.35;;;20.00;66.70;;;;;;4972907;28;20041;-78
2021/07/22 00:13:36;;;;;;;6.25;4.53;;;19.90;66.80;;;;;;4978721;28;20026;-78
2021/07/22 00:16:02;;;;;;;6.13;4.68;;;19.90;67.00;;;;;;4993708;28;20481;-78
2021/07/22 00:18:29;;;;;;;5.70;4.22;;;19.90;67.20;;;;;;4993537;28;20104;-79
2021/07/22 00:20:55;;;;;;;6.32;4.63;;;19.80;67.90;;;;;;4992224;28;20058;-79
2021/07/22 00:23:20;;;;;;;6.57;4.82;;;19.80;67.40;;;;;;4993351;28;20062;-77
2021/07/22 00:25:46;;;;;;;6.47;4.68;;;19.70;67.40;;;;;;4988437;28;20107;-77
2021/07/22 00:28:11;;;;;;;5.68;4.30;;;19.70;67.50;;;;;;4974453;28;20027;-78
2021/07/22 00:30:37;;;;;;;6.15;4.90;;;19.70;67.70;;;;;;4992160;28;20030;-78
2021/07/22 00:33:02;;;;;;;7.35;4.60;;;19.70;67.90;;;;;;4989554;28;20035;-77
2021/07/22 00:35:28;;;;;;;5.90;4.43;;;19.70;68.10;;;;;;4980395;28;20094;-79
2021/07/22 00:37:55;;;;;;;6.25;4.13;;;19.70;68.00;;;;;;4979520;28;20046;-76
2021/07/22 00:40:21;;;;;;;6.38;4.20;;;19.70;68.00;;;;;;4989673;28;20027;-76
2021/07/22 00:42:59;;;;;;;4.85;3.75;;;19.70;68.10;;;;;;4991540;28;20049;-76
2021/07/22 00:45:25;;;;;;;5.88;3.67;;;19.70;68.00;;;;;;4991566;28;20045;-76
2021/07/22 00:47:51;;;;;;;7.78;4.65;;;19.70;67.90;;;;;;5007484;28;20026;-76
2021/07/22 00:50:17;;;;;;;5.30;4.40;;;19.80;68.10;;;;;;4999839;28;20117;-76
2021/07/22 00:52:42;;;;;;;6.03;4.20;;;19.70;68.20;;;;;;4992364;28;20054;-77
2021/07/22 00:55:08;;;;;;;6.22;4.72;;;19.70;68.30;;;;;;4991362;28;20033;-77
2021/07/22 00:57:33;;;;;;;5.82;4.43;;;19.70;68.40;;;;;;4992862;28;20481;-77
2021/07/22 00:59:59;;;;;;;5.53;4.20;;;19.70;68.40;;;;;;4991003;28;20104;-80
2021/07/22 01:02:24;;;;;;;6.25;4.30;;;19.70;68.50;;;;;;4992349;28;20039;-78
2021/07/22 01:04:50;;;;;;;6.38;4.28;;;19.70;68.70;;;;;;4991576;28;20014;-78
2021/07/22 01:07:15;;;;;;;6.60;4.65;;;19.60;68.90;;;;;;4989252;28;20034;-78
2021/07/22 01:09:41;;;;;;;6.57;4.80;;;19.60;69.20;;;;;;4978856;28;20022;-78
2021/07/22 01:12:06;;;;;;;7.43;5.30;;;19.60;69.40;;;;;;4990120;28;20128;-79
2021/07/22 01:14:35;;;;;;;7.22;4.22;;;19.50;69.60;;;;;;4988444;28;20043;-78
2021/07/22 01:17:05;;;;;;;5.90;4.32;;;19.50;69.70;;;;;;4973156;28;20486;-79
2021/07/22 01:19:31;;;;;;;7.35;4.55;;;19.50;69.80;;;;;;4989989;28;20118;-77
2021/07/22 01:21:56;;;;;;;6.60;4.85;;;19.50;69.90;;;;;;4992277;28;20096;-78
2021/07/22 01:24:22;;;;;;;6.47;4.72;;;19.50;70.10;;;;;;4991521;28;20019;-78
2021/07/22 01:26:47;;;;;;;6.18;4.38;;;19.50;70.10;;;;;;4992534;28;20030;-77
2021/07/22 01:29:13;;;;;;;6.68;4.35;;;19.50;70.10;;;;;;4984905;28;20058;-78
2021/07/22 01:31:38;;;;;;;7.30;4.40;;;19.50;70.10;;;;;;4987247;28;20053;-77
2021/07/22 01:34:04;;;;;;;6.50;4.70;;;19.50;70.10;;;;;;4990562;28;20042;-77
2021/07/22 01:36:29;;;;;;;7.03;4.60;;;19.50;70.10;;;;;;4976260;28;20042;-77
2021/07/22 01:38:57;;;;;;;6.38;4.57;;;19.40;70.10;;;;;;4984322;28;20022;-78
2021/07/22 01:41:22;;;;;;;6.60;4.50;;;19.40;70.30;;;;;;4983391;28;20121;-77
2021/07/22 01:43:52;;;;;;;7.60;4.57;;;19.30;70.30;;;;;;4973300;28;20378;-78
2021/07/22 01:46:21;;;;;;;5.85;4.05;;;19.30;70.20;;;;;;4972921;28;20085;-78
2021/07/22 01:48:50;;;;;;;7.90;4.43;;;19.30;70.10;;;;;;4987220;28;20026;-78
2021/07/22 01:51:15;;;;;;;5.18;3.85;;;19.30;70.20;;;;;;4991455;28;20113;-78
2021/07/22 01:53:41;;;;;;;7.00;4.85;;;19.30;70.30;;;;;;4992391;28;20121;-77
2021/07/22 01:56:06;;;;;;;7.97;4.70;;;19.20;70.30;;;;;;4984078;28;20026;-78
2021/07/22 01:58:32;;;;;;;6.22;4.40;;;19.10;70.40;;;;;;4987994;28;20026;-78
2021/07/22 02:00:57;;;;;;;7.25;5.70;;;19.00;70.40;;;;;;4975585;28;20058;-77
2021/07/22 02:03:23;;;;;;;8.15;5.15;;;19.00;70.80;;;;;;4987470;28;20085;-77
2021/07/22 02:05:48;;;;;;;6.43;4.65;;;18.90;70.90;;;;;;4984304;28;20022;-77
2021/07/22 02:08:14;;;;;;;6.20;4.63;;;18.90;71.00;;;;;;4989454;28;20504;-77
2021/07/22 02:10:39;;;;;;;7.00;4.90;;;18.80;71.10;;;;;;4990940;28;20033;-77
2021/07/22 02:13:05;;;;;;;6.78;4.70;;;18.70;71.20;;;;;;4991740;28;20022;-77
2021/07/22 02:15:30;;;;;;;6.72;4.90;;;18.70;71.20;;;;;;4990831;28;20050;-76
2021/07/22 02:17:56;;;;;;;6.53;4.70;;;18.70;71.20;;;;;;4990504;28;20026;-77
2021/07/22 02:20:21;;;;;;;7.22;5.30;;;18.70;71.10;;;;;;4990767;28;20030;-77
2021/07/22 02:22:47;;;;;;;6.18;4.50;;;18.80;71.20;;;;;;4991616;28;20070;-78
2021/07/22 02:25:12;;;;;;;7.25;4.95;;;18.80;71.20;;;;;;4991144;28;20022;-78
2021/07/22 02:27:38;;;;;;;6.57;4.68;;;18.70;71.30;;;;;;4977399;28;20044;-77
2021/07/22 02:30:05;;;;;;;6.75;4.65;;;18.70;71.40;;;;;;4990605;28;20045;-77
2021/07/22 02:32:30;;;;;;;8.90;5.30;;;18.70;71.50;;;;;;4973971;28;20027;-77
2021/07/22 02:34:56;;;;;;;7.15;4.97;;;18.60;71.60;;;;;;4972351;28;20445;-77
2021/07/22 02:37:21;;;;;;;5.53;4.35;;;18.60;71.70;;;;;;4971132;28;20787;-77
2021/07/22 02:39:47;;;;;;;6.28;4.63;;;18.60;71.70;;;;;;4991251;28;20046;-77
2021/07/22 02:42:13;;;;;;;5.53;4.38;;;18.60;71.80;;;;;;4989758;28;20022;-77
2021/07/22 02:44:41;;;;;;;5.95;4.22;;;18.60;71.80;;;;;;4990645;28;20021;-76
2021/07/22 02:47:11;;;;;;;6.85;4.68;;;18.60;71.90;;;;;;4990779;28;20026;-77
2021/07/22 02:49:36;;;;;;;6.03;4.22;;;18.60;72.00;;;;;;4972454;28;20070;-76
2021/07/22 02:52:04;;;;;;;5.63;4.10;;;18.60;72.00;;;;;;4981683;28;20034;-77
2021/07/22 02:54:30;;;;;;;6.30;4.30;;;18.60;72.00;;;;;;4991344;28;20035;-77
2021/07/22 02:56:55;;;;;;;7.22;4.70;;;18.50;72.00;;;;;;4981230;28;20022;-78
2021/07/22 02:59:21;;;;;;;6.95;5.30;;;18.50;72.20;;;;;;4972311;28;20073;-78
2021/07/22 03:01:46;;;;;;;6.50;4.50;;;18.50;72.30;;;;;;4980782;28;20453;-78
2021/07/22 03:04:12;;;;;;;6.22;4.15;;;18.40;72.30;;;;;;4990993;28;20168;-77
2021/07/22 03:06:39;;;;;;;7.38;4.10;;;18.40;72.40;;;;;;4988088;28;20026;-78
2021/07/22 03:09:05;;;;;;;6.95;5.00;;;18.50;72.40;;;;;;4995321;28;20057;-77
2021/07/22 03:11:30;;;;;;;7.07;4.95;;;18.40;72.40;;;;;;4989396;28;20042;-78
2021/07/22 03:13:58;;;;;;;7.88;5.82;;;18.40;72.60;;;;;;4975581;28;20189;-78
2021/07/22 03:16:24;;;;;;;8.35;5.80;;;18.30;72.90;;;;;;4979161;28;20481;-78
2021/07/22 03:18:49;;;;;;;8.07;5.90;;;18.30;73.20;;;;;;4995628;28;20041;-78
2021/07/22 03:21:15;;;;;;;6.07;4.80;;;18.30;73.50;;;;;;4991695;28;20368;-77
2021/07/22 03:23:40;;;;;;;8.18;5.90;;;18.20;73.50;;;;;;4975707;28;20037;-77
2021/07/22 03:26:06;;;;;;;8.68;5.57;;;18.20;73.70;;;;;;4977662;28;20018;-77
2021/07/22 03:28:31;;;;;;;9.35;5.85;;;18.10;73.90;;;;;;4987953;28;20023;-77
2021/07/22 03:30:57;;;;;;;8.35;6.18;;;18.10;74.00;;;;;;4996814;28;20029;-77
2021/07/22 03:33:22;;;;;;;9.55;5.97;;;18.10;74.30;;;;;;4995017;28;20048;-77
2021/07/22 03:35:48;;;;;;;8.82;5.90;;;18.00;74.50;;;;;;4984781;28;20032;-77
2021/07/22 03:38:13;;;;;;;8.48;5.75;;;18.00;74.70;;;;;;4993571;28;20049;-77
2021/07/22 03:40:39;;;;;;;8.40;5.93;;;18.00;74.70;;;;;;4994022;28;20528;-77
2021/07/22 03:43:04;;;;;;;8.70;6.22;;;17.90;75.00;;;;;;4992933;28;20640;-77
2021/07/22 03:45:30;;;;;;;7.30;5.28;;;17.90;75.10;;;;;;4993280;28;20031;-77
2021/07/22 03:47:59;;;;;;;8.65;5.68;;;17.90;75.20;;;;;;4992691;28;20018;-77
2021/07/22 03:50:24;;;;;;;8.48;6.15;;;17.90;75.20;;;;;;4992662;28;20444;-77
2021/07/22 03:52:54;;;;;;;6.78;4.97;;;17.90;75.30;;;;;;4993680;28;20130;-77
2021/07/22 03:55:21;;;;;;;8.60;6.10;;;17.90;75.20;;;;;;4993902;28;20030;-77
2021/07/22 03:57:46;;;;;;;8.48;6.18;;;17.90;75.10;;;;;;4983745;28;20059;-77
2021/07/22 04:00:12;;;;;;;8.57;5.28;;;17.90;75.20;;;;;;4974993;28;20058;-77
2021/07/22 04:02:38;;;;;;;7.43;5.47;;;17.90;75.10;;;;;;4982102;28;20121;-77
2021/07/22 04:05:04;;;;;;;8.50;6.15;;;17.90;75.10;;;;;;4994083;28;20438;-76
2021/07/22 04:07:29;;;;;;;8.13;5.82;;;17.90;75.40;;;;;;4987316;28;20035;-76
2021/07/22 04:09:55;;;;;;;7.80;5.70;;;17.80;75.40;;;;;;4974486;28;20015;-76
2021/07/22 04:12:20;;;;;;;8.55;6.13;;;17.80;75.40;;;;;;4982279;28;20500;-75
2021/07/22 04:14:46;;;;;;;8.68;6.50;;;17.80;75.60;;;;;;4993198;28;20030;-75
2021/07/22 04:17:15;;;;;;;8.88;6.40;;;17.80;75.60;;;;;;4991627;28;20099;-78
2021/07/22 04:19:40;;;;;;;9.05;5.90;;;17.80;75.60;;;;;;4982574;28;20029;-79
2021/07/22 04:22:06;;;;;;;10.13;6.22;;;17.80;75.70;;;;;;5010425;28;20026;-79
2021/07/22 04:24:32;;;;;;;7.60;4.80;;;17.80;75.70;;;;;;4982177;28;20030;-78
2021/07/22 04:26:58;;;;;;;7.65;5.32;;;17.80;75.60;;;;;;4983650;28;20403;-77
2021/07/22 04:29:23;;;;;;;9.00;6.32;;;17.80;75.50;;;;;;4977631;28;20134;-78
2021/07/22 04:31:49;;;;;;;8.20;5.38;;;17.80;75.60;;;;;;4993321;28;20014;-78
2021/07/22 04:34:14;;;;;;;8.15;6.20;;;17.80;75.60;;;;;;4994328;28;20500;-77
2021/07/22 04:36:39;;;;;;;8.40;5.93;;;17.80;75.80;;;;;;4991625;28;20019;-77
2021/07/22 04:39:05;;;;;;;9.45;6.10;;;17.90;75.80;;;;;;4987472;28;20062;-77
2021/07/22 04:41:31;;;;;;;7.10;5.57;;;17.90;75.70;;;;;;4994957;28;20100;-76
2021/07/22 04:43:56;;;;;;;7.75;5.70;;;17.90;75.70;;;;;;4978978;28;20041;-76
2021/07/22 04:46:22;;;;;;;9.50;6.85;;;18.00;75.60;;;;;;4989322;28;20019;-78
2021/07/22 04:48:47;;;;;;;7.63;5.57;;;18.00;75.60;;;;;;4984115;28;20058;-77
2021/07/22 04:51:13;;;;;;;7.50;5.68;;;18.10;75.60;;;;;;4985235;28;20034;-77
2021/07/22 04:53:40;;;;;;;7.25;5.25;;;18.10;75.50;;;;;;4983483;28;20043;-77
2021/07/22 04:56:05;;;;;;;8.23;5.82;;;18.10;75.50;;;;;;4981654;28;20023;-77
2021/07/22 04:58:31;;;;;;;8.77;6.47;;;18.20;75.60;;;;;;4981041;28;20083;-76
2021/07/22 05:00:56;;;;;;;8.50;6.07;;;18.20;75.50;;;;;;4975220;28;20019;-76
2021/07/22 05:03:22;;;;;;;8.88;6.13;;;18.20;75.40;;;;;;4987253;28;20157;-77
2021/07/22 05:05:47;;;;;;;7.22;5.65;;;18.30;75.30;;;;;;4992113;28;20110;-76
2021/07/22 05:08:13;;;;;;;8.73;5.95;;;18.30;75.10;;;;;;4999090;28;20696;-77
2021/07/22 05:10:38;;;;;;;8.40;6.30;;;18.40;75.20;;;;;;4998182;28;20405;-76
2021/07/22 05:13:04;;;;;;;8.00;5.93;;;18.60;75.10;;;;;;4987378;28;20050;-76
2021/07/22 05:15:30;;;;;;;8.30;5.88;;;19.20;74.00;;;;;;4985685;28;20085;-76
2021/07/22 05:17:56;;;;;;;7.25;5.15;;;19.80;72.10;;;;;;4991791;28;20105;-75
2021/07/22 05:20:21;;;;;;;7.22;5.38;;;20.40;71.00;;;;;;4994803;28;20382;-76
2021/07/22 05:22:47;;;;;;;8.35;5.60;;;21.00;68.70;;;;;;4994481;28;20032;-76
2021/07/22 05:25:13;;;;;;;7.85;5.25;;;21.40;67.20;;;;;;4996774;28;20030;-76
2021/07/22 05:27:39;;;;;;;7.15;5.25;;;21.90;66.00;;;;;;4996532;28;20477;-77
2021/07/22 05:30:05;;;;;;;7.57;5.40;;;22.30;64.80;;;;;;4981600;28;20715;-77
2021/07/22 05:32:31;;;;;;;6.25;4.60;;;22.70;63.70;;;;;;4987078;28;20023;-79
2021/07/22 05:34:56;;;;;;;8.43;5.95;;;23.00;63.00;;;;;;4995979;28;20440;-81
2021/07/22 05:37:22;;;;;;;6.88;5.53;;;23.10;62.40;;;;;;4991807;28;20029;-78
2021/07/22 05:39:47;;;;;;;9.10;6.13;;;23.30;61.90;;;;;;4982203;28;20493;-76
2021/07/22 05:42:13;;;;;;;8.00;5.40;;;23.40;61.50;;;;;;4988682;28;20030;-78
2021/07/22 05:44:38;;;;;;;6.82;5.20;;;23.50;61.20;;;;;;4988473;28;20053;-77
2021/07/22 05:47:05;;;;;;;8.23;5.60;;;23.80;60.60;;;;;;4992464;28;20041;-78
2021/07/22 05:49:31;;;;;;;8.32;6.50;;;24.10;60.10;;;;;;4997461;28;20102;-77
2021/07/22 05:51:56;;;;;;;7.15;5.45;;;24.30;59.40;;;;;;4985728;28;20121;-77
2021/07/22 05:54:22;;;;;;;7.10;5.47;;;24.50;59.00;;;;;;4990752;28;20046;-78
2021/07/22 05:56:47;;;;;;;6.78;5.28;;;24.80;58.40;;;;;;4992778;28;20048;-78
2021/07/22 05:59:13;;;;;;;9.00;5.28;;;25.00;57.90;;;;;;4994709;28;20046;-78
2021/07/22 06:01:38;;;;;;;7.35;5.88;;;25.20;57.50;;;;;;4979662;28;20089;-78
2021/07/22 06:04:04;;;;;;;7.47;5.60;;;25.30;57.30;;;;;;4987617;28;20026;-77
2021/07/22 06:06:29;;;;;;;7.82;5.70;;;25.50;57.00;;;;;;5001284;28;20065;-78
2021/07/22 06:08:56;;;;;;;9.27;6.65;;;25.60;56.70;;;;;;4996225;28;20076;-78
2021/07/22 06:11:22;;;;;;;7.15;5.22;;;25.70;56.40;;;;;;4988505;28;20446;-79
2021/07/22 06:13:47;;;;;;;6.32;5.00;;;25.70;56.50;;;;;;4987706;28;20034;-78
2021/07/22 06:16:14;;;;;;;7.72;5.93;;;25.70;56.50;;;;;;4983253;28;20037;-77
2021/07/22 06:18:41;;;;;;;6.95;5.53;;;25.80;56.30;;;;;;4990515;28;20473;-78
2021/07/22 06:21:10;;;;;;;7.28;4.97;;;26.00;56.00;;;;;;4989455;28;20492;-78
2021/07/22 06:23:36;;;;;;;7.65;5.20;;;26.40;55.60;;;;;;4982451;28;20113;-78
2021/07/22 06:26:01;;;;;;;6.03;4.70;;;26.60;55.00;;;;;;4981047;28;20534;-78
2021/07/22 06:28:27;;;;;;;6.63;4.32;;;26.80;55.30;;;;;;4982556;28;20590;-77
2021/07/22 06:30:54;;;;;;;6.15;5.00;;;26.90;54.50;;;;;;4983147;28;20023;-77
2021/07/22 06:33:20;;;;;;;7.40;5.22;;;26.80;54.70;;;;;;4980995;28;20022;-78
2021/07/22 06:35:46;;;;;;;8.55;5.20;;;26.80;54.90;;;;;;4979495;28;20030;-78
2021/07/22 06:38:13;;;;;;;8.15;5.00;;;26.70;55.20;;;;;;4981235;28;20053;-78
2021/07/22 06:40:39;;;;;;;6.13;5.10;;;26.50;55.90;;;;;;4983434;28;20035;-78
2021/07/22 06:43:07;;;;;;;9.27;7.32;;;25.90;56.60;;;;;;4987036;28;20050;-77
2021/07/22 06:45:33;;;;;;;9.85;7.22;;;25.00;57.50;;;;;;4981105;28;20509;-78
2021/07/22 06:48:00;;;;;;;8.43;6.90;;;24.30;59.10;;;;;;4989072;28;20058;-78
2021/07/22 06:50:26;;;;;;;10.70;7.30;;;23.80;60.50;;;;;;4989496;28;20038;-78
2021/07/22 06:52:51;;;;;;;6.70;5.03;;;23.70;61.40;;;;;;4984482;28;20030;-78
2021/07/22 06:55:17;;;;;;;6.97;4.75;;;23.60;61.90;;;;;;4983790;28;20483;-76
2021/07/22 06:57:42;;;;;;;6.95;5.32;;;23.60;62.10;;;;;;4985522;28;20114;-78
2021/07/22 07:00:08;;;;;;;7.43;4.75;;;23.70;62.30;;;;;;4985516;28;20029;-75
2021/07/22 07:02:34;;;;;;;5.82;4.47;;;23.80;62.10;;;;;;4983798;28;20030;-79
2021/07/22 07:04:59;;;;;;;9.85;5.70;;;23.90;61.80;;;;;;4989641;28;20527;-77
2021/07/22 07:07:25;;;;;;;6.85;5.40;;;23.80;61.60;;;;;;4992939;28;20038;-75
2021/07/22 07:09:52;;;;;;;5.47;4.28;;;23.80;61.50;;;;;;4992911;28;20030;-78
2021/07/22 07:12:18;;;;;;;7.13;5.28;;;23.80;61.50;;;;;;4991915;28;20098;-78
2021/07/22 07:14:43;;;;;;;7.00;5.07;;;24.00;61.30;;;;;;4993212;28;20128;-77
2021/07/22 07:17:09;;;;;;;9.43;6.75;;;24.10;60.80;;;;;;4992255;28;20081;-77
2021/07/22 07:19:35;;;;;;;7.03;5.43;;;24.00;60.60;;;;;;4993991;28;20114;-78
2021/07/22 07:22:00;;;;;;;6.80;4.90;;;24.10;60.60;;;;;;4999235;28;20043;-77
2021/07/22 07:24:26;;;;;;;7.35;5.50;;;24.10;60.60;;;;;;4985196;28;20026;-78
2021/07/22 07:26:51;;;;;;;6.05;4.45;;;24.00;60.50;;;;;;4987126;28;20539;-77
2021/07/22 07:29:17;;;;;;;7.30;5.53;;;23.90;60.60;;;;;;4985219;28;20061;-77
2021/07/22 07:31:42;;;;;;;6.22;4.55;;;23.60;60.80;;;;;;4992645;28;20152;-80
2021/07/22 07:34:08;;;;;;;7.32;4.95;;;23.40;61.50;;;;;;4989141;28;20038;-77
2021/07/22 07:36:34;;;;;;;6.93;4.93;;;23.20;61.90;;;;;;4986348;28;20409;-77
2021/07/22 07:38:59;;;;;;;7.00;5.55;;;23.20;62.20;;;;;;4989145;28;20473;-76
2021/07/22 07:41:25;;;;;;;6.32;5.00;;;23.10;62.20;;;;;;4986651;28;20026;-76
2021/07/22 07:43:50;;;;;;;8.45;5.18;;;23.00;62.40;;;;;;4988257;28;20030;-77
2021/07/22 07:46:16;;;;;;;8.07;6.05;;;23.00;62.50;;;;;;4981134;28;20034;-78
2021/07/22 07:48:42;;;;;;;7.35;5.20;;;23.00;62.40;;;;;;4988225;28;20038;-78
2021/07/22 07:51:09;;;;;;;7.07;5.53;;;22.90;62.40;;;;;;4988639;28;20019;-78
2021/07/22 07:53:35;;;;;;;8.43;6.28;;;22.80;62.30;;;;;;4991758;28;20042;-78
2021/07/22 07:56:01;;;;;;;6.68;5.00;;;22.80;62.20;;;;;;4991009;28;20029;-79
2021/07/22 07:58:27;;;;;;;6.22;4.97;;;22.90;62.30;;;;;;5005931;28;20030;-78
2021/07/22 08:00:53;;;;;;;6.22;4.68;;;22.80;62.30;;;;;;4998091;28;20030;-77
2021/07/22 08:03:21;;;;;;;6.13;4.95;;;22.90;62.20;;;;;;4989742;28;20026;-77
2021/07/22 08:05:47;;;;;;;6.32;4.72;;;22.90;62.00;;;;;;4990222;28;20161;-77
2021/07/22 08:08:13;;;;;;;5.90;4.95;;;23.00;61.90;;;;;;4991137;28;20100;-77
2021/07/22 08:10:41;;;;;;;6.43;5.18;;;23.00;61.80;;;;;;4990429;28;20481;-78
2021/07/22 08:13:10;;;;;;;9.30;6.25;;;23.00;61.80;;;;;;4995461;28;20042;-77
2021/07/22 08:15:37;;;;;;;8.15;5.70;;;23.00;61.90;;;;;;4990334;28;20530;-77
2021/07/22 08:18:03;;;;;;;8.52;6.93;;;23.00;62.00;;;;;;4998014;28;20408;-77
2021/07/22 08:20:32;;;;;;;9.13;7.00;;;23.00;62.00;;;;;;4993888;28;20026;-78
2021/07/22 08:22:58;;;;;;;8.98;6.75;;;23.10;62.00;;;;;;4990883;28;20046;-76
2021/07/22 08:25:24;;;;;;;9.15;7.07;;;23.00;61.70;;;;;;4991492;28;20029;-78
2021/07/22 08:27:50;;;;;;;6.82;4.90;;;22.90;62.00;;;;;;4985974;28;20568;-79
2021/07/22 08:30:16;;;;;;;7.18;5.88;;;23.00;62.00;;;;;;4996062;28;20019;-78
2021/07/22 08:32:42;;;;;;;8.73;7.47;;;23.20;61.60;;;;;;4995407;28;20038;-78
2021/07/22 08:35:08;;;;;;;6.38;4.90;;;23.40;61.00;;;;;;4994840;28;20103;-79
2021/07/22 08:37:35;;;;;;;7.50;5.80;;;23.40;60.80;;;;;;4988975;28;20030;-78
2021/07/22 08:40:04;;;;;;;8.05;6.18;;;23.30;60.40;;;;;;4995237;28;20036;-78
2021/07/22 08:42:35;;;;;;;7.20;5.60;;;23.20;60.20;;;;;;4986533;28;20103;-78
2021/07/22 08:45:03;;;;;;;6.95;5.65;;;23.20;60.10;;;;;;4998191;28;20053;-78
2021/07/22 08:47:29;;;;;;;7.65;5.80;;;23.00;59.90;;;;;;4998807;28;20026;-78
2021/07/22 08:49:56;;;;;;;5.70;4.20;;;22.90;59.90;;;;;;4991717;28;20243;-77
2021/07/22 08:52:22;;;;;;;3.97;3.45;;;23.00;60.00;;;;;;4994165;28;20469;-80
2021/07/22 08:54:48;;;;;;;4.28;3.53;;;23.10;59.90;;;;;;4992114;28;20034;-77
2021/07/22 08:57:16;;;;;;;4.95;3.40;;;23.30;60.20;;;;;;4991214;28;20420;-76
2021/07/22 08:59:42;;;;;;;5.35;4.28;;;23.50;59.20;;;;;;4988439;28;20027;-77
2021/07/22 09:02:15;;;;;;;5.57;4.55;;;23.50;58.70;;;;;;4990631;28;20121;-77
2021/07/22 09:04:56;;;;;;;4.88;4.00;;;23.50;58.70;;;;;;4995937;28;20018;-76
2021/07/22 09:07:23;;;;;;;4.28;3.58;;;23.50;59.20;;;;;;4986687;28;20026;-77
2021/07/22 09:10:04;;;;;;;5.97;4.70;;;23.50;58.50;;;;;;4990427;28;20037;-77
2021/07/22 09:12:49;;;;;;;4.15;3.10;;;23.40;58.00;;;;;;4989018;28;20026;-77
2021/07/22 09:15:26;;;;;;;3.65;3.05;;;23.50;58.00;;;;;;4991863;28;20512;-77
2021/07/22 09:17:52;;;;;;;4.15;3.25;;;23.70;57.80;;;;;;4988497;28;20049;-77
2021/07/22 09:20:31;;;;;;;5.22;3.60;;;23.70;57.30;;;;;;4992232;28;20965;-77
2021/07/22 09:23:01;;;;;;;5.65;4.22;;;23.70;56.60;;;;;;4987938;28;20045;-74
2021/07/22 09:25:44;;;;;;;6.00;3.95;;;23.50;57.10;;;;;;4986345;28;20642;-76
2021/07/22 09:28:17;;;;;;;3.95;3.13;;;23.60;57.10;;;;;;4985619;28;20199;-78
2021/07/22 09:31:01;;;;;;;6.15;4.10;;;23.80;56.90;;;;;;4982512;28;20034;-79
2021/07/22 09:33:44;;;;;;;4.57;3.42;;;23.90;55.90;;;;;;4985243;28;20077;-77
2021/07/22 09:36:18;;;;;;;;;;;24.00;56.10;;;;;;4982057;28;20454;-77
2021/07/22 09:38:43;;;;;;;3.53;2.70;;;24.20;55.90;;;;;;4998989;28;20371;-76
2021/07/22 09:41:18;;;;;;;2.92;2.15;;;24.20;55.60;;;;;;4985082;28;20074;-76
2021/07/22 09:43:44;;;;;;;4.70;2.88;;;24.30;55.60;;;;;;4982107;28;20049;-76
2021/07/22 09:46:10;;;;;;;4.55;2.75;;;24.30;55.40;;;;;;4987194;28;20510;-76
2021/07/22 09:48:37;;;;;;;4.25;3.17;;;24.20;55.40;;;;;;4986937;28;20065;-74
2021/07/22 09:51:03;;;;;;;4.57;3.22;;;24.20;55.50;;;;;;4983528;28;20030;-74
2021/07/22 09:53:29;;;;;;;4.43;2.80;;;24.20;55.40;;;;;;4982016;28;20039;-75
2021/07/22 09:55:56;;;;;;;3.63;2.95;;;24.10;55.70;;;;;;4981831;28;20235;-74
2021/07/22 09:58:22;;;;;;;3.50;2.97;;;24.10;55.90;;;;;;4989169;28;20050;-74
2021/07/22 10:00:54;;;;;;;3.42;2.38;;;24.10;55.80;;;;;;4983571;28;20034;-77
2021/07/22 10:03:20;;;;;;;4.53;3.45;;;24.10;56.00;;;;;;4988549;28;20025;-77
2021/07/22 10:05:48;;;;;;;4.25;2.80;;;24.20;55.80;;;;;;4989090;28;20027;-75
2021/07/22 10:08:18;;;;;;;3.92;3.38;;;24.20;55.50;;;;;;4991546;28;20023;-74
2021/07/22 10:10:51;;;;;;;3.10;2.75;;;24.30;55.20;;;;;;4980959;28;20057;-74
2021/07/22 10:13:21;;;;;;;3.90;3.20;;;24.50;55.00;;;;;;4988206;28;20040;-73
2021/07/22 10:15:48;;;;;;;4.32;3.08;;;24.60;54.70;;;;;;4985411;28;20540;-74
2021/07/22 10:18:15;;;;;;;3.97;2.70;;;24.70;54.30;;;;;;4984051;28;20061;-74
2021/07/22 10:20:42;;;;;;;5.00;3.60;;;24.90;54.10;;;;;;4987864;28;20030;-76
2021/07/22 10:23:10;;;;;;;4.40;3.80;;;24.90;53.00;;;;;;4984176;28;20030;-76
2021/07/22 10:25:36;;;;;;;6.00;3.78;;;24.80;53.40;;;;;;4983337;28;20030;-76
2021/07/22 10:28:02;;;;;;;6.22;4.07;;;24.80;53.30;;;;;;4984778;28;20465;-76
2021/07/22 10:30:29;;;;;;;6.13;4.30;;;25.00;53.20;;;;;;4983502;28;20100;-78
2021/07/22 10:32:58;;;;;;;4.45;3.38;;;25.10;52.80;;;;;;4980228;28;20031;-76
2021/07/22 10:35:30;;;;;;;5.47;4.03;;;25.30;52.70;;;;;;4986592;28;20034;-75
2021/07/22 10:38:40;;;;;;;5.07;4.20;;;25.30;52.40;;;;;;4989138;28;20041;-76
2021/07/22 10:41:06;;;;;;;5.22;4.30;;;25.20;52.80;;;;;;4976895;28;20073;-75
2021/07/22 10:43:46;;;;;;;5.28;4.25;;;25.00;52.90;;;;;;4985292;28;20031;-78
2021/07/22 10:46:17;;;;;;;6.40;3.55;;;24.90;53.00;;;;;;4986051;28;20037;-76
2021/07/22 10:48:44;;;;;;;4.00;3.33;;;24.80;53.20;;;;;;4980730;28;20033;-78
2021/07/22 10:51:20;;;;;;;4.90;3.60;;;24.80;53.00;;;;;;4983806;28;20041;-76
2021/07/22 10:53:50;;;;;;;3.97;3.30;;;24.90;53.00;;;;;;4985216;28;20482;-76
2021/07/22 10:56:43;;;;;;;4.88;3.03;;;25.00;53.00;;;;;;4980973;28;20481;-76
2021/07/22 10:59:08;;;;;;;3.67;2.63;;;25.00;53.10;;;;;;4983117;28;20077;-75
2021/07/22 11:01:43;;;;;;;6.03;4.25;;;25.20;52.80;;;;;;4988695;28;20035;-75
2021/07/22 11:04:09;;;;;;;4.47;3.50;;;25.00;52.70;;;;;;4982666;28;20035;-76
2021/07/22 11:07:00;;;;;;;4.25;3.63;;;25.20;52.70;;;;;;4982468;28;20037;-77
2021/07/22 11:09:46;;;;;;;5.28;3.30;;;25.50;52.30;;;;;;4983256;28;20072;-73
2021/07/22 11:12:32;;;;;;;5.07;4.18;;;25.60;52.40;;;;;;4981811;28;20026;-74
2021/07/22 11:14:59;;;;;;;6.18;3.78;;;25.50;52.10;;;;;;4984902;28;20058;-74
2021/07/22 11:17:32;;;;;;;4.65;3.50;;;25.40;52.40;;;;;;4981408;28;20034;-73
2021/07/22 11:20:20;;;;;;;3.85;2.72;;;25.50;52.30;;;;;;4986004;28;20120;-75
2021/07/22 11:22:47;;;;;;;6.50;3.92;;;25.60;52.50;;;;;;4981028;28;20028;-75
2021/07/22 11:25:13;;;;;;;4.88;3.40;;;25.60;52.40;;;;;;4980845;28;20034;-75
2021/07/22 11:27:49;;;;;;;5.28;3.33;;;25.50;53.00;;;;;;4979145;28;20026;-74
2021/07/22 11:30:17;;;;;;;5.22;3.70;;;25.50;52.10;;;;;;4984392;28;20128;-74
2021/07/22 11:32:43;;;;;;;5.32;3.78;;;25.40;52.20;;;;;;4986218;28;20492;-74
2021/07/22 11:35:09;;;;;;;5.55;4.25;;;25.30;52.00;;;;;;4983146;28;20037;-74
2021/07/22 11:37:35;;;;;;;4.05;3.30;;;25.30;52.20;;;;;;4978228;28;20031;-73
2021/07/22 11:40:08;;;;;;;3.60;2.97;;;25.40;52.30;;;;;;4980656;28;20446;-74
2021/07/22 11:42:49;;;;;;;3.97;3.45;;;25.60;51.60;;;;;;4980208;28;20057;-74
2021/07/22 11:45:14;;;;;;;4.95;4.25;;;25.60;51.60;;;;;;4979825;28;21389;-75
2021/07/22 11:47:40;;;;;;;6.13;4.80;;;25.60;50.90;;;;;;4986780;28;20038;-74
2021/07/22 11:50:07;;;;;;;5.28;3.47;;;25.50;51.00;;;;;;4987082;28;20081;-76
2021/07/22 11:52:32;;;;;;;3.33;3.03;;;25.50;51.50;;;;;;4985991;28;20019;-75
2021/07/22 11:55:06;;;;;;;3.53;2.80;;;25.70;52.00;;;;;;4979672;28;20046;-77
2021/07/22 11:57:44;;;;;;;3.50;3.15;;;25.90;51.00;;;;;;4981790;28;20038;-74
2021/07/22 12:00:21;;;;;;;4.43;3.38;;;26.00;50.40;;;;;;4977671;28;20367;-77
2021/07/22 12:02:53;;;;;;;4.00;3.30;;;26.20;50.20;;;;;;4987012;28;20026;-77
2021/07/22 12:05:25;;;;;;;4.72;3.10;;;26.30;50.50;;;;;;5000380;28;20034;-75
2021/07/22 12:07:52;;;;;;;;;;;26.50;49.60;;;;;;4991921;28;20029;-74
2021/07/22 12:10:29;;;;;;;4.55;3.22;;;26.60;49.50;;;;;;4991432;28;19917;-73
2021/07/22 12:13:08;;;;;;;7.63;4.70;;;26.70;49.10;;;;;;4987568;28;20161;-74
2021/07/22 12:15:35;;;;;;;4.45;3.78;;;26.40;47.70;;;;;;4988358;28;20065;-76
2021/07/22 12:18:01;;;;;;;4.50;3.30;;;25.90;48.30;;;;;;4987890;28;20041;-75
2021/07/22 12:20:26;;;;;;;3.15;2.85;;;26.00;48.60;;;;;;4992200;28;20022;-77
2021/07/22 12:22:52;;;;;;;3.60;3.00;;;26.00;48.90;;;;;;4988431;28;20488;-76
2021/07/22 12:25:19;;;;;;;3.65;2.88;;;26.10;48.70;;;;;;4989191;28;20033;-75
2021/07/22 12:27:52;;;;;;;3.28;2.55;;;26.10;48.50;;;;;;4981586;28;20059;-74
2021/07/22 12:30:26;;;;;;;4.30;3.22;;;26.20;48.80;;;;;;4987483;28;20030;-77
2021/07/22 12:32:55;;;;;;;3.65;2.90;;;26.10;48.20;;;;;;5003638;28;20449;-75
2021/07/22 12:35:41;;;;;;;4.30;2.90;;;26.00;48.40;;;;;;4985979;28;20444;-75
2021/07/22 12:38:15;;;;;;;3.13;2.47;;;26.00;48.70;;;;;;4999873;28;20164;-75
2021/07/22 12:40:42;;;;;;;3.58;2.80;;;25.90;48.70;;;;;;4986553;28;20148;-75
2021/07/22 12:43:18;;;;;;;3.53;2.85;;;26.00;48.60;;;;;;5003742;28;20037;-76
2021/07/22 12:45:45;;;;;;;3.70;3.17;;;26.20;48.40;;;;;;4990386;28;20018;-74
2021/07/22 12:48:12;;;;;;;2.83;2.53;;;26.40;48.00;;;;;;5002113;28;20037;-74
2021/07/22 12:50:43;;;;;;;2.65;2.38;;;26.50;47.80;;;;;;4995698;28;20080;-75